In Rescue
 
Open Full Screen Window  High Contrast Mode
Wind Gusting 16 knots
12
September 23, 2021 1:14 PM CDT
Weather Information
Wind Direction
  160 °
Wind Speed
  12 kt (14 mph)
Wind Gust
  16 kt (18 mph)
Altimeter
29.97 in
Visibility
10 SM
Temperature
21° C
70° F
Dewpoint
07° C
45° F
Humidity
40%
1hr Rain Fall
00.00 in.
24hr Rain Fall
00.00 in.
Sky Condition
Clear
VFR

METAR KBJI 231814Z AUTO 16012G16KT 10SM CLR 21/07 A2997 RMK AO2 T02110071

FAA Disclaimer: The data displayed is for advisory purposes only and is not to be used for flight planning or operations.